Time;durP1;ratioP1;P1;durP2;ratioP2;P2;SDS_P1;SDS_P2;PMS_P1;PMS_P2;Temp;Humidity;BMP_temperature;BMP_pressure;BME280_temperature;BME280_humidity;BME280_pressure;Samples;Min_cycle;Max_cycle;Signal;HPM_P1;HPM_P2
2021/11/28 00:00:11;;;;;;;;;4.75;4.75;;;;;7.19;64.32;99236.88;4999711;28;45968;-43
2021/11/28 00:02:37;;;;;;;;;3.00;3.00;;;;;7.20;64.17;99242.97;4999736;28;45341;-42
2021/11/28 00:05:04;;;;;;;;;5.00;3.00;;;;;7.20;64.50;99241.19;4999991;28;45260;-42
2021/11/28 00:13:02;;;;;;;;;4.50;4.25;;;;;7.21;64.53;99232.47;4999793;28;45319;-42
2021/11/28 00:15:27;;;;;;;;;5.50;4.25;;;;;7.22;64.81;99244.66;4999841;28;45320;-43
2021/11/28 00:17:53;;;;;;;;;3.50;2.25;;;;;7.22;64.35;99249.00;4999540;28;45390;-42
2021/11/28 00:20:18;;;;;;;;;5.50;4.75;;;;;7.22;64.36;99249.00;4999694;28;46092;-44
2021/11/28 00:22:44;;;;;;;;;1.75;1.75;;;;;7.19;64.18;99242.09;4999596;28;45285;-42
2021/11/28 00:25:13;;;;;;;;;7.50;4.00;;;;;7.24;64.33;99247.22;4999794;28;45258;-43
2021/11/28 00:27:39;;;;;;;;;5.00;4.00;;;;;7.24;64.16;99247.22;4999330;28;45561;-43
2021/11/28 00:30:08;;;;;;;;;2.00;2.00;;;;;7.26;64.21;99248.03;4999589;28;45332;-42
2021/11/28 00:32:33;;;;;;;;;2.00;2.00;;;;;7.27;64.24;99247.13;4999367;28;45317;-43
2021/11/28 00:34:59;;;;;;;;;3.00;3.00;;;;;7.29;64.33;99243.56;4999611;28;45770;-43
2021/11/28 00:37:24;;;;;;;;;7.75;3.00;;;;;7.29;64.39;99242.72;4999526;28;45438;-43
2021/11/28 00:39:50;;;;;;;;;1.00;1.00;;;;;7.27;64.14;99255.84;4999397;28;45339;-43
2021/11/28 00:42:16;;;;;;;;;2.00;2.00;;;;;7.31;63.88;99251.41;4999300;28;45354;-44
2021/11/28 00:44:42;;;;;;;;;2.00;2.00;;;;;7.29;63.96;99259.25;4999505;28;45335;-44
2021/11/28 00:47:09;;;;;;;;;3.75;2.75;;;;;7.30;64.15;99260.13;4998687;28;45316;-45
2021/11/28 00:49:37;;;;;;;;;5.00;2.50;;;;;7.28;64.06;99252.34;5002724;28;46045;-44
2021/11/28 00:52:03;;;;;;;;;4.25;2.25;;;;;7.19;63.95;99236.03;5002692;28;45165;-43
2021/11/28 00:54:29;;;;;;;;;2.25;2.25;;;;;7.28;63.97;99267.13;5002701;28;45300;-42
2021/11/28 00:56:56;;;;;;;;;3.00;3.00;;;;;7.29;64.06;99269.72;5001339;28;45565;-43
2021/11/28 00:59:21;;;;;;;;;3.25;2.75;;;;;7.29;63.76;99259.25;5002302;28;46176;-44
2021/11/28 01:01:47;;;;;;;;;2.00;2.00;;;;;7.30;63.88;99266.19;5002565;28;45419;-43
2021/11/28 01:04:12;;;;;;;;;3.25;3.00;;;;;7.26;63.80;99261.97;5002713;28;45531;-44
2021/11/28 01:06:38;;;;;;;;;4.50;3.00;;;;;7.31;63.77;99278.38;5002527;28;45414;-44
2021/11/28 01:09:06;;;;;;;;;3.25;3.00;;;;;7.31;63.64;99278.38;5002206;28;45373;-44
2021/11/28 01:11:32;;;;;;;;;2.75;0.00;;;;;7.31;63.91;99274.91;5002497;28;45186;-41
2021/11/28 01:13:58;;;;;;;;;2.25;1.25;;;;;7.31;63.69;99285.38;5002449;28;45228;-45
2021/11/28 01:16:25;;;;;;;;;6.50;3.00;;;;;7.33;63.74;99283.56;5002401;28;45430;-43
2021/11/28 01:18:51;;;;;;;;;2.00;2.00;;;;;7.31;63.70;99283.59;5002039;28;46435;-42
2021/11/28 01:21:17;;;;;;;;;3.00;1.75;;;;;7.30;63.82;99292.34;5002410;28;45323;-43
2021/11/28 01:23:42;;;;;;;;;4.25;1.75;;;;;7.33;63.54;99291.41;5000905;28;45363;-43
2021/11/28 01:26:08;;;;;;;;;5.00;2.75;;;;;7.32;63.66;99289.72;5000964;28;45592;-43
2021/11/28 01:28:33;;;;;;;;;2.00;2.00;;;;;7.34;63.85;99287.06;5002269;28;45377;-43
2021/11/28 01:30:59;;;;;;;;;12.75;10.00;;;;;7.34;63.56;99281.81;5002407;28;45529;-43
2021/11/28 01:33:24;;;;;;;;;3.50;3.25;;;;;7.34;63.69;99292.28;5001188;28;45543;-43
2021/11/28 01:35:50;;;;;;;;;1.75;1.75;;;;;7.37;63.73;99300.91;5002100;28;45528;-43
2021/11/28 01:38:19;;;;;;;;;2.75;2.75;;;;;7.36;63.53;99307.03;5002059;28;45257;-43
2021/11/28 01:40:45;;;;;;;;;1.00;1.00;;;;;7.36;63.88;99295.69;5001721;28;45503;-43
2021/11/28 01:43:13;;;;;;;;;3.50;2.50;;;;;7.39;63.47;99306.94;5002099;28;45300;-43
2021/11/28 01:45:39;;;;;;;;;2.50;1.50;;;;;7.40;63.49;99303.44;5001763;28;45534;-42
2021/11/28 01:48:10;;;;;;;;;2.50;2.00;;;;;7.39;63.50;99303.47;5001818;28;46381;-43
2021/11/28 01:50:39;;;;;;;;;1.00;1.00;;;;;7.39;63.39;99304.31;5002039;28;45311;-42
2021/11/28 01:53:08;;;;;;;;;3.00;3.00;;;;;7.40;63.52;99303.44;5001927;28;45177;-41
2021/11/28 01:55:34;;;;;;;;;2.75;1.00;;;;;7.41;63.60;99306.91;5000276;28;45498;-42
2021/11/28 01:58:02;;;;;;;;;3.25;1.75;;;;;7.38;63.55;99307.81;5001648;28;45450;-42
2021/11/28 02:00:35;;;;;;;;;1.00;1.00;;;;;7.41;63.46;99312.13;4984116;28;45336;-42
2021/11/28 02:03:00;;;;;;;;;2.00;2.00;;;;;7.41;63.36;99313.00;5001502;28;45495;-42
2021/11/28 02:05:29;;;;;;;;;1.50;1.50;;;;;7.40;63.11;99313.88;5001688;28;45315;-42
2021/11/28 02:07:55;;;;;;;;;2.00;1.00;;;;;7.42;63.28;99317.34;5000394;28;48141;-46
2021/11/28 02:10:21;;;;;;;;;0.50;0.50;;;;;7.39;63.41;99325.25;5001429;28;45233;-43
2021/11/28 02:12:46;;;;;;;;;1.00;1.00;;;;;7.38;63.22;99320.06;5001459;28;45256;-42
2021/11/28 02:15:14;;;;;;;;;2.00;2.00;;;;;7.38;63.21;99310.44;5001667;28;45468;-43
2021/11/28 02:17:39;;;;;;;;;2.00;2.00;;;;;7.38;63.38;99328.75;5001427;28;45438;-45
2021/11/28 02:20:06;;;;;;;;;10.25;9.50;;;;;7.36;63.45;99316.59;5001509;28;45408;-47
2021/11/28 02:22:32;;;;;;;;;2.75;2.00;;;;;7.37;63.25;99324.44;5000011;28;45331;-45
2021/11/28 02:24:58;;;;;;;;;3.00;2.00;;;;;7.38;63.38;99330.50;5001247;28;45434;-43
2021/11/28 02:27:23;;;;;;;;;2.75;2.75;;;;;7.39;63.29;99327.84;5000805;28;45610;-42
2021/11/28 02:29:48;;;;;;;;;1.75;1.75;;;;;7.38;63.23;99331.34;5001510;28;45362;-44
2021/11/28 02:32:15;;;;;;;;;2.25;1.25;;;;;7.38;63.22;99328.75;5001299;28;45351;-41
2021/11/28 02:34:40;;;;;;;;;3.00;2.00;;;;;7.35;63.20;99341.91;5001141;28;45253;-44
2021/11/28 02:37:06;;;;;;;;;3.00;2.00;;;;;7.36;63.29;99330.56;5000964;28;46005;-42
2021/11/28 02:39:34;;;;;;;;;0.50;0.00;;;;;7.37;63.43;99334.88;5001224;28;45316;-42
2021/11/28 02:41:59;;;;;;;;;3.00;1.00;;;;;7.39;63.28;99329.63;5001173;28;45339;-43
2021/11/28 02:44:26;;;;;;;;;0.75;0.75;;;;;7.40;63.07;99340.03;4999701;28;45422;-42
2021/11/28 02:46:52;;;;;;;;;2.75;2.75;;;;;7.40;63.06;99340.03;5000864;28;46467;-41
2021/11/28 02:49:18;;;;;;;;;3.00;1.00;;;;;7.40;63.02;99336.56;5001130;28;45314;-42
2021/11/28 02:51:44;;;;;;;;;2.00;2.00;;;;;7.39;63.11;99342.69;4999888;28;45344;-42
2021/11/28 02:54:10;;;;;;;;;2.75;2.00;;;;;7.39;63.04;99347.91;5000764;28;45276;-41
2021/11/28 02:56:36;;;;;;;;;1.75;1.00;;;;;7.37;63.03;99350.56;5000692;28;45415;-41
2021/11/28 02:59:03;;;;;;;;;2.00;2.00;;;;;7.38;62.98;99348.81;5001134;28;45272;-42
2021/11/28 03:01:28;;;;;;;;;2.25;2.00;;;;;7.38;62.85;99354.88;5000813;28;45864;-41
2021/11/28 03:03:54;;;;;;;;;2.00;1.75;;;;;7.40;63.06;99357.47;5001030;28;45308;-41
2021/11/28 03:06:20;;;;;;;;;3.25;3.00;;;;;7.36;63.18;99355.81;5000606;28;45981;-41
2021/11/28 03:08:46;;;;;;;;;2.00;1.50;;;;;7.34;63.29;99352.38;4999562;28;45520;-42
2021/11/28 03:11:14;;;;;;;;;2.00;2.00;;;;;7.33;62.96;99351.50;4998792;28;45493;-41
2021/11/28 03:13:43;;;;;;;;;2.75;2.50;;;;;7.36;62.94;99361.03;5000889;28;45237;-41
2021/11/28 03:16:12;;;;;;;;;2.00;2.00;;;;;7.34;63.06;99355.84;5000376;28;45335;-41
2021/11/28 03:18:37;;;;;;;;;1.00;1.00;;;;;7.40;63.00;99362.72;5000764;28;45244;-42
2021/11/28 03:21:11;;;;;;;;;2.75;2.75;;;;;7.39;62.82;99359.22;5000429;28;45782;-42
2021/11/28 03:23:38;;;;;;;;;2.00;2.00;;;;;7.39;63.01;99361.81;5000614;28;45540;-42
2021/11/28 03:26:17;;;;;;;;;3.75;1.00;;;;;7.39;63.08;99366.22;4999895;28;45265;-44
2021/11/28 03:28:59;;;;;;;;;2.00;2.00;;;;;7.41;63.14;99365.28;5000495;28;45193;-41
2021/11/28 03:31:26;;;;;;;;;3.00;3.00;;;;;7.41;63.02;99365.28;5000489;28;45489;-44
2021/11/28 03:33:52;;;;;;;;;2.25;2.25;;;;;7.41;63.08;99362.66;5000028;28;45433;-41
2021/11/28 03:36:22;;;;;;;;;2.00;2.00;;;;;7.39;63.24;99359.22;4998991;28;48271;-41
2021/11/28 03:38:48;;;;;;;;;1.00;1.00;;;;;7.39;63.14;99364.44;5000005;28;45363;-43
2021/11/28 03:41:14;;;;;;;;;3.00;2.00;;;;;7.40;63.13;99370.53;4982441;28;45460;-42
2021/11/28 03:43:41;;;;;;;;;2.00;2.00;;;;;7.41;63.12;99369.63;4999928;28;45498;-43
2021/11/28 03:46:07;;;;;;;;;1.00;1.00;;;;;7.42;62.97;99363.50;4999842;28;45222;-44
2021/11/28 03:48:32;;;;;;;;;2.75;1.00;;;;;7.40;63.07;99362.72;4995389;28;45260;-44
2021/11/28 03:50:58;;;;;;;;;2.00;2.00;;;;;7.41;63.01;99365.28;4991386;28;45302;-42
2021/11/28 03:53:23;;;;;;;;;1.50;1.00;;;;;7.35;62.98;99362.81;4998679;28;45288;-44
2021/11/28 03:55:50;;;;;;;;;2.50;2.50;;;;;7.42;62.94;99377.47;4999869;28;45378;-44
2021/11/28 03:58:16;;;;;;;;;2.00;2.00;;;;;7.37;62.80;99376.69;4999966;28;45495;-43
2021/11/28 04:00:41;;;;;;;;;1.50;1.50;;;;;7.42;62.86;99381.81;5000155;28;45489;-42
2021/11/28 04:03:10;;;;;;;;;4.00;2.00;;;;;7.41;63.19;99378.34;4999788;28;45241;-44
2021/11/28 04:05:36;;;;;;;;;2.25;1.75;;;;;7.39;62.94;99381.88;5000097;28;46075;-42
2021/11/28 04:08:01;;;;;;;;;11.25;11.00;;;;;7.38;63.04;99383.63;4999733;28;45241;-43
2021/11/28 04:10:27;;;;;;;;;2.25;2.25;;;;;7.35;62.92;99383.72;4999979;28;45346;-43
2021/11/28 04:12:52;;;;;;;;;3.75;2.00;;;;;7.37;63.22;99387.16;4998687;28;45442;-42
2021/11/28 04:15:18;;;;;;;;;3.50;2.75;;;;;7.38;63.01;99380.16;4999882;28;46257;-42
2021/11/28 04:17:44;;;;;;;;;3.00;3.00;;;;;7.34;62.97;99379.38;4999851;28;45456;-42
2021/11/28 04:20:09;;;;;;;;;1.00;1.00;;;;;7.34;63.17;99381.97;5000263;28;45640;-42
2021/11/28 04:22:35;;;;;;;;;3.00;2.00;;;;;7.37;62.91;99386.28;5001031;28;45281;-42
2021/11/28 04:25:01;;;;;;;;;2.00;2.00;;;;;7.34;62.84;99378.53;5003206;28;46108;-42
2021/11/28 04:27:27;;;;;;;;;1.00;1.00;;;;;7.36;63.00;99392.41;5002805;28;45385;-42
2021/11/28 04:29:52;;;;;;;;;2.25;2.25;;;;;7.35;62.98;99380.25;5003420;28;45432;-44
2021/11/28 04:32:18;;;;;;;;;2.50;2.00;;;;;7.35;63.07;99386.31;5003157;28;45552;-44
2021/11/28 04:34:43;;;;;;;;;4.00;2.25;;;;;7.33;62.89;99393.31;5003194;28;45437;-43
2021/11/28 04:37:09;;;;;;;;;1.75;1.75;;;;;7.31;62.92;99388.13;5003088;28;45293;-44
2021/11/28 04:39:35;;;;;;;;;2.00;2.00;;;;;7.31;62.78;99380.31;5003372;28;45222;-42
2021/11/28 04:42:01;;;;;;;;;2.00;2.00;;;;;7.28;63.01;99385.59;5001376;28;45541;-41
2021/11/28 04:44:26;;;;;;;;;2.00;1.25;;;;;7.28;62.78;99382.13;5002806;28;46214;-42
2021/11/28 04:46:52;;;;;;;;;1.25;1.00;;;;;7.27;62.92;99390.84;5002772;28;45356;-41
2021/11/28 04:49:17;;;;;;;;;1.00;1.00;;;;;7.24;62.85;99388.31;5003267;28;45541;-41
2021/11/28 04:51:43;;;;;;;;;0.00;0.00;;;;;7.22;62.92;99393.59;5001692;28;46047;-41
2021/11/28 04:54:08;;;;;;;;;2.50;0.75;;;;;7.19;62.93;99387.56;5002835;28;45264;-42
2021/11/28 04:56:34;;;;;;;;;1.50;1.00;;;;;7.13;63.04;99385.94;5002553;28;45347;-42
2021/11/28 04:58:59;;;;;;;;;2.50;2.00;;;;;7.14;63.00;99393.75;5001662;28;45348;-41
2021/11/28 05:01:25;;;;;;;;;0.50;0.50;;;;;7.12;63.08;99399.91;5002614;28;45560;-41
2021/11/28 05:03:50;;;;;;;;;3.00;1.75;;;;;7.09;63.10;99402.56;5002785;28;45388;-43
2021/11/28 05:06:16;;;;;;;;;2.00;1.00;;;;;7.08;63.05;99393.88;5002457;28;45279;-42
2021/11/28 05:08:42;;;;;;;;;1.00;1.00;;;;;7.08;63.30;99399.09;5002773;28;45319;-41
2021/11/28 05:11:07;;;;;;;;;2.00;2.00;;;;;7.06;63.39;99398.28;5002222;28;45400;-42
2021/11/28 05:13:33;;;;;;;;;2.00;1.00;;;;;7.02;63.37;99396.63;5001153;28;45912;-41
2021/11/28 05:15:59;;;;;;;;;1.00;0.50;;;;;7.03;63.40;99402.69;5002474;28;45418;-41
2021/11/28 05:18:24;;;;;;;;;1.00;1.00;;;;;7.03;63.45;99406.19;5001317;28;45235;-43
2021/11/28 05:20:49;;;;;;;;;2.00;2.00;;;;;7.03;63.40;99410.53;5002493;28;45257;-41
2021/11/28 05:23:16;;;;;;;;;1.00;1.00;;;;;7.02;63.33;99406.19;5002447;28;45244;-42
2021/11/28 05:25:41;;;;;;;;;2.00;2.00;;;;;7.02;63.38;99409.69;5002049;28;45348;-41
2021/11/28 05:28:08;;;;;;;;;3.50;3.00;;;;;7.02;63.33;99407.06;5002607;28;45787;-43
2021/11/28 05:30:35;;;;;;;;;1.00;1.00;;;;;7.02;63.17;99414.03;5002309;28;45548;-42
2021/11/28 05:33:01;;;;;;;;;2.25;1.50;;;;;7.02;63.33;99420.13;5001762;28;46126;-43
2021/11/28 05:35:26;;;;;;;;;1.50;0.75;;;;;7.00;63.55;99421.91;5002043;28;45328;-43
2021/11/28 05:37:51;;;;;;;;;2.00;1.00;;;;;7.01;63.55;99426.25;5002522;28;45328;-42
2021/11/28 05:40:17;;;;;;;;;2.75;1.75;;;;;6.98;63.11;99423.69;5001741;28;45288;-42
2021/11/28 05:42:47;;;;;;;;;1.75;1.75;;;;;6.96;63.43;99425.47;5002071;28;46041;-43
2021/11/28 05:45:12;;;;;;;;;1.00;0.00;;;;;6.93;63.56;99417.69;5001988;28;45309;-41
2021/11/28 05:47:38;;;;;;;;;3.00;1.50;;;;;6.94;63.61;99432.47;5002034;28;45431;-41
2021/11/28 05:50:04;;;;;;;;;1.00;1.00;;;;;6.94;63.39;99428.13;5001844;28;45535;-42
2021/11/28 05:52:29;;;;;;;;;2.00;2.00;;;;;6.92;63.49;99431.66;5001888;28;46243;-43
2021/11/28 05:54:56;;;;;;;;;1.75;0.50;;;;;6.93;63.67;99433.34;5001596;28;45269;-43
2021/11/28 05:57:21;;;;;;;;;2.00;2.00;;;;;6.90;63.53;99429.06;5002031;28;45406;-42
2021/11/28 05:59:47;;;;;;;;;5.00;2.75;;;;;6.93;63.62;99435.97;5001713;28;45328;-44
2021/11/28 06:02:13;;;;;;;;;1.25;1.25;;;;;6.92;63.78;99439.50;5001591;28;45336;-42
2021/11/28 06:04:38;;;;;;;;;3.00;2.25;;;;;6.90;63.78;99439.50;5001287;28;45333;-42
2021/11/28 06:07:04;;;;;;;;;2.00;2.00;;;;;6.92;63.66;99453.41;5000498;28;45288;-41
2021/11/28 06:09:30;;;;;;;;;5.50;2.00;;;;;6.91;63.71;99450.84;5001432;28;45415;-42
2021/11/28 06:11:55;;;;;;;;;0.75;0.25;;;;;6.90;63.70;99444.72;5000204;28;47435;-41
2021/11/28 06:14:20;;;;;;;;;2.25;1.25;;;;;6.89;63.68;99458.66;5001460;28;45254;-41
2021/11/28 06:16:46;;;;;;;;;4.00;3.00;;;;;6.91;63.67;99467.34;5001830;28;45415;-41
2021/11/28 06:19:11;;;;;;;;;1.00;1.00;;;;;6.89;63.62;99463.91;5000190;28;45274;-41
2021/11/28 06:21:37;;;;;;;;;2.25;2.25;;;;;6.91;63.70;99467.34;5001530;28;45406;-41
2021/11/28 06:24:02;;;;;;;;;1.00;1.00;;;;;6.89;63.72;99466.50;5001391;28;45169;-41
2021/11/28 06:26:27;;;;;;;;;1.75;1.75;;;;;6.90;63.81;99473.47;5001411;28;45320;-41
2021/11/28 06:28:53;;;;;;;;;1.50;1.50;;;;;6.91;64.00;99471.72;5000209;28;45570;-41
2021/11/28 06:31:18;;;;;;;;;3.25;2.00;;;;;6.91;63.75;99488.25;5001395;28;45289;-40
2021/11/28 06:33:43;;;;;;;;;2.50;1.75;;;;;6.89;63.87;99484.78;5001177;28;45283;-40
2021/11/28 06:36:09;;;;;;;;;3.75;3.50;;;;;6.88;64.31;99482.22;4999939;28;45499;-40
2021/11/28 06:38:34;;;;;;;;;1.25;0.00;;;;;6.88;63.91;99487.44;5001180;28;45462;-40
2021/11/28 06:41:01;;;;;;;;;2.75;2.25;;;;;6.85;63.81;99479.69;5000900;28;46066;-40
2021/11/28 06:43:26;;;;;;;;;2.00;2.00;;;;;6.88;63.85;99482.22;5001109;28;45416;-43
2021/11/28 06:45:52;;;;;;;;;2.75;2.00;;;;;6.88;64.02;99493.53;4999944;28;45335;-41
2021/11/28 06:48:17;;;;;;;;;2.75;2.75;;;;;6.88;63.83;99488.31;5000824;28;45274;-41
2021/11/28 06:50:43;;;;;;;;;2.00;1.75;;;;;6.88;63.84;99487.44;5000880;28;46070;-41
2021/11/28 06:53:08;;;;;;;;;1.25;1.00;;;;;6.87;63.87;99494.44;4999636;28;45270;-40
2021/11/28 06:55:34;;;;;;;;;1.50;1.50;;;;;6.87;64.04;99494.44;5000788;28;45304;-41
2021/11/28 06:57:59;;;;;;;;;2.00;2.00;;;;;6.88;64.08;99496.16;4999347;28;45366;-41
2021/11/28 07:00:25;;;;;;;;;2.50;2.00;;;;;6.88;64.03;99513.56;5000926;28;45253;-40
2021/11/28 07:02:50;;;;;;;;;1.00;1.00;;;;;6.85;64.19;99496.19;5000784;28;45573;-41
2021/11/28 07:05:16;;;;;;;;;3.00;2.00;;;;;6.90;63.97;99501.34;5000911;28;45388;-40
2021/11/28 07:07:41;;;;;;;;;2.00;2.00;;;;;6.79;63.95;99494.56;4999506;28;45865;-41
2021/11/28 07:10:07;;;;;;;;;1.25;1.00;;;;;6.90;63.79;99501.34;5000457;28;46005;-41
2021/11/28 07:12:32;;;;;;;;;6.00;3.00;;;;;6.90;63.80;99503.94;4999065;28;45487;-41
2021/11/28 07:14:58;;;;;;;;;1.00;1.00;;;;;6.89;63.95;99512.66;5007971;28;45343;-42
2021/11/28 07:17:23;;;;;;;;;1.25;1.25;;;;;6.91;63.99;99518.75;5009773;28;45315;-41
2021/11/28 07:19:49;;;;;;;;;3.25;1.75;;;;;6.91;63.83;99523.97;5000672;28;45318;-42
2021/11/28 07:22:14;;;;;;;;;2.25;2.00;;;;;6.91;63.89;99521.34;5000334;28;45468;-44
2021/11/28 07:24:39;;;;;;;;;2.50;1.50;;;;;6.91;63.85;99523.97;5000439;28;45314;-40
2021/11/28 07:27:05;;;;;;;;;5.75;1.75;;;;;6.90;63.86;99522.22;5000194;28;45299;-41
2021/11/28 07:29:30;;;;;;;;;2.50;2.50;;;;;6.90;63.92;99528.31;4999248;28;45873;-40
2021/11/28 07:31:56;;;;;;;;;2.00;1.00;;;;;6.94;63.91;99539.56;4993514;28;45348;-41
2021/11/28 07:34:21;;;;;;;;;2.00;1.25;;;;;6.93;64.02;99537.84;5000375;28;45365;-41
2021/11/28 07:36:47;;;;;;;;;3.25;0.75;;;;;6.94;63.90;99545.66;5000231;28;45451;-43
2021/11/28 07:39:12;;;;;;;;;2.50;1.00;;;;;6.95;63.88;99544.75;5000344;28;46315;-41
2021/11/28 07:41:38;;;;;;;;;4.50;1.50;;;;;6.97;63.69;99553.44;4999996;28;45371;-41
2021/11/28 07:44:04;;;;;;;;;2.25;1.25;;;;;6.95;63.59;99543.91;4999123;28;45402;-42
2021/11/28 07:46:29;;;;;;;;;3.00;2.00;;;;;7.00;63.69;99562.97;4997979;28;45560;-41
2021/11/28 07:48:55;;;;;;;;;2.50;1.00;;;;;7.02;63.62;99562.94;4999608;28;45281;-41
2021/11/28 07:51:22;;;;;;;;;1.25;1.25;;;;;7.01;63.88;99567.31;4999191;28;45398;-41
2021/11/28 07:53:49;;;;;;;;;2.00;1.00;;;;;7.02;63.73;99562.94;5000239;28;45307;-40
2021/11/28 07:56:14;;;;;;;;;2.00;1.25;;;;;7.03;63.96;99567.28;5001746;28;45567;-41
2021/11/28 07:58:40;;;;;;;;;2.25;1.25;;;;;7.05;63.75;99574.19;5009278;28;46456;-40
2021/11/28 08:01:05;;;;;;;;;1.25;0.75;;;;;7.05;63.90;99568.97;5004222;28;45260;-44
2021/11/28 08:03:31;;;;;;;;;2.00;2.00;;;;;7.07;63.75;99587.22;4996933;28;45401;-52
2021/11/28 08:05:59;;;;;;;;;1.00;1.00;;;;;7.05;63.82;99582.03;4996102;28;45529;-49
2021/11/28 08:08:27;;;;;;;;;1.00;1.00;;;;;7.08;63.66;99597.66;5000155;28;45363;-50
2021/11/28 08:10:53;;;;;;;;;2.00;2.00;;;;;7.07;63.74;99587.22;4982239;28;45259;-47
2021/11/28 08:13:19;;;;;;;;;4.00;1.25;;;;;7.10;63.69;99587.16;5000213;28;45367;-49
2021/11/28 08:15:44;;;;;;;;;1.00;1.00;;;;;7.12;63.54;99596.69;4999910;28;45385;-50
2021/11/28 08:18:10;;;;;;;;;1.00;1.00;;;;;7.10;63.51;99603.69;4998649;28;45869;-50
2021/11/28 08:20:36;;;;;;;;;1.00;1.00;;;;;7.12;63.48;99604.53;4998913;28;45342;-51
2021/11/28 08:23:03;;;;;;;;;1.25;0.50;;;;;7.12;63.45;99607.16;5000137;28;45464;-40
2021/11/28 08:25:28;;;;;;;;;2.25;2.25;;;;;7.15;63.39;99596.63;4999695;28;45562;-40
2021/11/28 08:27:54;;;;;;;;;5.00;3.00;;;;;7.13;63.25;99587.97;4999892;28;46155;-40
2021/11/28 08:30:19;;;;;;;;;1.00;1.00;;;;;7.19;63.35;99620.97;4998208;28;46063;-40
2021/11/28 08:32:48;;;;;;;;;2.25;2.00;;;;;7.21;63.46;99611.34;4993119;28;45379;-40
2021/11/28 08:35:14;;;;;;;;;1.00;1.00;;;;;7.23;63.35;99622.66;4998763;28;45494;-42
2021/11/28 08:37:39;;;;;;;;;2.00;1.50;;;;;7.24;63.42;99624.34;4998201;28;46045;-41
2021/11/28 08:40:08;;;;;;;;;1.00;1.00;;;;;7.28;63.37;99626.03;4998858;28;45430;-40
2021/11/28 08:42:34;;;;;;;;;2.25;1.25;;;;;7.28;63.24;99627.78;4998500;28;45358;-40
2021/11/28 08:45:02;;;;;;;;;3.00;2.00;;;;;7.30;63.34;99626.00;4997841;28;45253;-41
2021/11/28 08:47:28;;;;;;;;;2.00;1.00;;;;;7.29;62.96;99612.06;4999021;28;45991;-41
2021/11/28 08:49:53;;;;;;;;;1.75;1.00;;;;;7.30;63.27;99615.53;4999416;28;45185;-40
2021/11/28 08:52:18;;;;;;;;;2.25;2.00;;;;;7.30;63.21;99618.16;4999542;28;45263;-43
2021/11/28 08:54:44;;;;;;;;;0.50;0.50;;;;;7.31;63.35;99606.81;4996809;28;45652;-39
2021/11/28 08:57:09;;;;;;;;;1.25;1.25;;;;;7.31;63.44;99619.88;4996185;28;46690;-40
2021/11/28 08:59:35;;;;;;;;;1.25;1.00;;;;;7.33;63.19;99631.16;5003136;28;45446;-40
2021/11/28 09:02:00;;;;;;;;;2.50;0.50;;;;;7.32;63.24;99629.47;5004771;28;45385;-40
2021/11/28 09:04:26;;;;;;;;;1.50;1.50;;;;;7.34;63.39;99639.88;4999426;28;45388;-39
2021/11/28 09:06:51;;;;;;;;;2.50;1.00;;;;;7.38;63.19;99647.63;4999320;28;46869;-40
2021/11/28 09:09:17;;;;;;;;;1.50;1.50;;;;;7.42;63.14;99643.19;5001844;28;45272;-44
2021/11/28 09:11:43;;;;;;;;;2.50;2.50;;;;;7.42;63.17;99641.47;5002404;28;45296;-40
2021/11/28 09:14:08;;;;;;;;;2.25;2.25;;;;;7.43;62.97;99637.09;5002224;28;45264;-47
2021/11/28 09:16:34;;;;;;;;;2.50;1.50;;;;;7.44;63.06;99644.88;5002299;28;45363;-41
2021/11/28 09:19:15;;;;;;;;;2.00;2.00;;;;;7.50;62.85;99649.16;5001156;28;45245;-44
2021/11/28 09:21:41;;;;;;;;;5.00;3.00;;;;;7.52;62.95;99649.13;5002630;28;45387;-41
2021/11/28 09:26:50;;;;;;;;;1.00;1.00;;;;;7.52;62.96;99651.72;5002186;28;45414;-43
2021/11/28 09:29:16;;;;;;;;;2.25;2.00;;;;;7.54;62.86;99657.81;5002144;28;45378;-42
2021/11/28 09:31:41;;;;;;;;;2.75;2.75;;;;;7.52;63.16;99668.31;4994603;28;45391;-43
2021/11/28 09:34:07;;;;;;;;;4.50;4.00;;;;;7.54;62.82;99665.66;5001367;28;45458;-48
2021/11/28 09:36:33;;;;;;;;;2.00;2.00;;;;;7.53;63.15;99663.91;5001997;28;45606;-44
2021/11/28 09:39:00;;;;;;;;;3.00;3.00;;;;;7.56;63.09;99677.81;5000264;28;45646;-42
2021/11/28 09:41:33;;;;;;;;;4.75;3.50;;;;;7.54;62.87;99673.50;5002584;28;45256;-40
2021/11/28 09:44:04;;;;;;;;;2.00;2.00;;;;;7.57;62.91;99673.41;5001149;28;45245;-40
2021/11/28 09:46:31;;;;;;;;;2.00;2.00;;;;;7.54;63.04;99676.09;5001128;28;46294;-43
2021/11/28 09:49:01;;;;;;;;;3.00;2.50;;;;;7.56;63.15;99679.53;5001159;28;45411;-45
2021/11/28 09:51:27;;;;;;;;;5.50;2.50;;;;;7.58;62.98;99681.22;5000639;28;45494;-42
2021/11/28 09:53:56;;;;;;;;;3.00;2.50;;;;;7.54;63.11;99678.72;5001813;28;45370;-40
2021/11/28 09:56:23;;;;;;;;;3.75;3.00;;;;;7.58;63.09;99675.16;5000989;28;46065;-41
2021/11/28 09:58:49;;;;;;;;;6.50;4.00;;;;;7.58;63.12;99675.16;5001766;28;45445;-41
2021/11/28 10:01:15;;;;;;;;;8.00;4.00;;;;;7.58;62.73;99683.84;5000021;28;45238;-41
2021/11/28 10:03:40;;;;;;;;;5.75;2.75;;;;;7.58;62.72;99689.06;5001826;28;45348;-39
2021/11/28 10:06:06;;;;;;;;;4.00;3.00;;;;;7.57;62.78;99687.38;5001633;28;46475;-40
2021/11/28 10:08:32;;;;;;;;;4.50;4.50;;;;;7.57;62.73;99695.22;5001705;28;45321;-41
2021/11/28 10:11:03;;;;;;;;;10.00;3.00;;;;;7.59;62.72;99689.94;5001177;28;45403;-41
2021/11/28 10:13:29;;;;;;;;;5.75;3.75;;;;;7.58;62.88;99699.53;5001427;28;45379;-41
2021/11/28 10:15:55;;;;;;;;;4.25;1.75;;;;;7.56;63.02;99701.31;5001310;28;45416;-41
2021/11/28 10:18:20;;;;;;;;;4.00;3.00;;;;;7.54;62.82;99697.88;5001473;28;45344;-41
2021/11/28 10:20:47;;;;;;;;;2.25;2.25;;;;;7.53;63.01;99690.06;4998471;28;45139;-40
2021/11/28 10:23:12;;;;;;;;;4.25;2.25;;;;;7.49;62.96;99702.31;5001198;28;45479;-41
2021/11/28 10:25:38;;;;;;;;;4.00;2.50;;;;;7.47;62.80;99710.19;5001227;28;46211;-40
2021/11/28 10:28:09;;;;;;;;;4.50;4.00;;;;;7.41;62.80;99688.50;5001062;28;45319;-41
2021/11/28 10:30:41;;;;;;;;;5.00;3.00;;;;;7.37;62.77;99692.97;5000533;28;45448;-40
2021/11/28 10:33:21;;;;;;;;;6.50;3.50;;;;;7.38;62.64;99693.81;4977495;28;45388;-40
2021/11/28 10:36:22;;;;;;;;;3.00;3.00;;;;;7.35;62.96;99697.34;5000586;28;45276;-40
2021/11/28 10:38:47;;;;;;;;;3.00;2.50;;;;;7.34;62.90;99695.63;4998552;28;45376;-40
2021/11/28 10:41:24;;;;;;;;;3.75;3.00;;;;;7.31;62.75;99696.53;5012428;28;45288;-40
2021/11/28 10:43:50;;;;;;;;;3.00;2.00;;;;;7.31;62.96;99699.16;5001048;28;45544;-40
2021/11/28 10:46:23;;;;;;;;;6.25;6.25;;;;;7.29;62.67;99692.22;5001046;28;46152;-40
2021/11/28 10:49:12;;;;;;;;;9.50;4.00;;;;;7.28;62.64;99685.25;5000811;28;45446;-40
2021/11/28 10:51:40;;;;;;;;;3.00;3.00;;;;;7.26;62.86;99693.13;4999690;28;45343;-40
2021/11/28 10:54:27;;;;;;;;;3.25;2.00;;;;;7.25;62.72;99696.63;5000678;28;45518;-41
2021/11/28 10:57:08;;;;;;;;;4.50;3.00;;;;;7.25;62.93;99703.63;5004888;28;45470;-40
2021/11/28 10:59:39;;;;;;;;;4.75;4.50;;;;;7.24;62.67;99699.28;5000378;28;45169;-40
2021/11/28 11:02:20;;;;;;;;;5.00;2.50;;;;;7.22;62.91;99703.66;4999106;28;45521;-40
2021/11/28 11:04:46;;;;;;;;;4.25;4.25;;;;;7.13;62.78;99692.50;5000552;28;45663;-40
2021/11/28 11:07:13;;;;;;;;;3.75;3.75;;;;;7.16;62.66;99704.66;4999216;28;45992;-40
2021/11/28 11:09:41;;;;;;;;;3.25;3.25;;;;;7.17;62.66;99706.38;5000607;28;45354;-40
2021/11/28 11:12:41;;;;;;;;;4.75;4.25;;;;;7.19;62.64;99707.19;5000725;28;45407;-40
2021/11/28 11:15:07;;;;;;;;;7.25;5.00;;;;;7.20;62.75;99708.06;5000169;28;45473;-40
2021/11/28 11:17:34;;;;;;;;;6.75;4.00;;;;;7.20;62.51;99703.69;5000214;28;45367;-40
2021/11/28 11:20:00;;;;;;;;;7.25;3.75;;;;;7.21;62.75;99712.38;5000730;28;45389;-39
2021/11/28 11:22:31;;;;;;;;;9.25;7.50;;;;;7.19;62.79;99706.34;5000485;28;45419;-40
2021/11/28 11:25:01;;;;;;;;;3.50;3.50;;;;;7.21;62.92;99704.53;4999045;28;45840;-40
2021/11/28 11:27:33;;;;;;;;;5.00;5.00;;;;;7.20;62.78;99714.16;5000219;28;45288;-40
2021/11/28 11:30:02;;;;;;;;;4.25;4.25;;;;;7.21;62.57;99701.94;5000229;28;45358;-40
2021/11/28 11:32:47;;;;;;;;;7.25;4.50;;;;;7.19;62.66;99708.94;4999754;28;45467;-40
2021/11/28 11:35:18;;;;;;;;;4.00;4.00;;;;;7.20;62.82;99713.31;4998817;28;45484;-40
2021/11/28 11:37:45;;;;;;;;;4.75;2.75;;;;;7.20;62.63;99715.91;5000547;28;46447;-40
2021/11/28 11:40:13;;;;;;;;;5.50;4.00;;;;;7.19;62.79;99711.56;4999713;28;45289;-40
2021/11/28 11:42:41;;;;;;;;;7.00;5.00;;;;;7.19;62.79;99696.75;4998933;28;45189;-39
2021/11/28 11:45:09;;;;;;;;;4.50;4.50;;;;;7.19;62.59;99707.19;5000113;28;45561;-39
2021/11/28 11:47:36;;;;;;;;;3.75;3.75;;;;;7.17;62.67;99701.16;5000088;28;46063;-40